createdAt,value
2023-11-29T00:00:33.819Z,-1.00
2023-11-29T00:03:03.083Z,-1.10
2023-11-29T00:05:37.240Z,-1.10
2023-11-29T00:08:09.457Z,-1.10
2023-11-29T00:10:37.346Z,-1.10
2023-11-29T00:13:05.467Z,-1.20
2023-11-29T00:15:33.336Z,-1.20
2023-11-29T00:18:02.605Z,-1.20
2023-11-29T00:20:31.517Z,-1.20
2023-11-29T00:22:59.604Z,-1.30
2023-11-29T00:25:27.464Z,-1.40
2023-11-29T00:27:55.317Z,-1.40
2023-11-29T00:30:26.077Z,-1.30
2023-11-29T00:32:54.076Z,-1.30
2023-11-29T00:35:23.323Z,-1.40
2023-11-29T00:37:51.211Z,-1.40
2023-11-29T00:40:19.062Z,-1.50
2023-11-29T00:42:46.951Z,-1.40
2023-11-29T00:45:14.827Z,-1.40
2023-11-29T00:47:42.765Z,-1.50
2023-11-29T00:50:11.564Z,-1.50
2023-11-29T00:52:40.896Z,-1.50
2023-11-29T00:55:09.633Z,-1.40
2023-11-29T00:57:38.431Z,-1.40
2023-11-29T01:00:07.565Z,-1.30
2023-11-29T01:02:38.690Z,-1.30
2023-11-29T01:05:07.607Z,-1.40
2023-11-29T01:07:37.073Z,-1.40
2023-11-29T01:10:07.096Z,-1.40
2023-11-29T01:12:38.420Z,-1.50
2023-11-29T01:15:07.150Z,-1.50
2023-11-29T01:17:35.514Z,-1.50
2023-11-29T01:20:04.318Z,-1.50
2023-11-29T01:22:32.175Z,-1.60
2023-11-29T01:25:00.172Z,-1.60
2023-11-29T01:27:31.616Z,-1.60
2023-11-29T01:29:59.635Z,-1.60
2023-11-29T01:32:27.549Z,-1.70
2023-11-29T01:34:55.446Z,-1.60
2023-11-29T01:37:23.403Z,-1.60
2023-11-29T01:39:51.307Z,-1.70
2023-11-29T01:42:19.261Z,-1.70
2023-11-29T01:44:48.627Z,-1.70
2023-11-29T01:47:18.297Z,-1.70
2023-11-29T01:49:46.318Z,-1.70
2023-11-29T01:52:15.810Z,-1.80
2023-11-29T01:54:44.274Z,-1.80
2023-11-29T01:57:13.711Z,-1.80
2023-11-29T01:59:41.639Z,-1.80
2023-11-29T02:02:11.066Z,-1.90
2023-11-29T02:04:39.266Z,-1.90
2023-11-29T02:07:07.392Z,-1.90
2023-11-29T02:09:35.398Z,-2.00
2023-11-29T02:12:05.315Z,-1.90
2023-11-29T02:14:37.928Z,-1.90
2023-11-29T02:17:06.041Z,-1.90
2023-11-29T02:19:38.294Z,-1.90
2023-11-29T02:22:06.696Z,-1.90
2023-11-29T02:24:41.492Z,-1.90
2023-11-29T02:27:10.798Z,-2.00
2023-11-29T02:29:40.166Z,-2.00
2023-11-29T02:32:08.645Z,-1.90
2023-11-29T02:34:37.273Z,-1.80
2023-11-29T02:37:05.271Z,-1.70
2023-11-29T02:39:33.120Z,-1.50
2023-11-29T02:42:01.027Z,-1.50
2023-11-29T02:44:30.334Z,-1.40
2023-11-29T02:46:58.308Z,-1.30
2023-11-29T02:49:26.180Z,-1.20
2023-11-29T02:51:54.163Z,-1.20
2023-11-29T02:54:24.820Z,-1.20
2023-11-29T02:56:55.669Z,-1.20
2023-11-29T02:59:23.504Z,-1.20
2023-11-29T03:01:55.312Z,-1.20
2023-11-29T03:04:25.321Z,-1.20
2023-11-29T03:06:53.337Z,-1.20
2023-11-29T03:09:21.232Z,-1.10
2023-11-29T03:11:49.097Z,-1.10
2023-11-29T03:14:17.596Z,-1.10
2023-11-29T03:16:45.507Z,-1.10
2023-11-29T03:19:14.812Z,-1.20
2023-11-29T03:21:42.740Z,-1.20
2023-11-29T03:24:10.651Z,-1.20
2023-11-29T03:26:43.943Z,-1.20
2023-11-29T03:29:13.297Z,-1.30
2023-11-29T03:31:41.182Z,-1.40
2023-11-29T03:34:09.050Z,-1.40
2023-11-29T03:36:38.389Z,-1.40
2023-11-29T03:39:06.299Z,-1.40
2023-11-29T03:41:34.188Z,-1.40
2023-11-29T03:44:02.071Z,-1.40
2023-11-29T03:46:29.951Z,-1.40
2023-11-29T03:48:57.826Z,-1.40
2023-11-29T03:51:27.461Z,-1.40
2023-11-29T03:53:58.792Z,-1.40
2023-11-29T03:56:26.694Z,-1.40
2023-11-29T03:58:54.556Z,-1.40
2023-11-29T04:01:22.453Z,-1.40
2023-11-29T04:03:50.359Z,-1.40
2023-11-29T04:06:25.836Z,-1.40
2023-11-29T04:08:54.122Z,-1.40
2023-11-29T04:11:23.725Z,-1.30
2023-11-29T04:13:51.651Z,-1.20
2023-11-29T04:16:25.211Z,-1.20
2023-11-29T04:18:54.547Z,-1.20
2023-11-29T04:21:28.294Z,-1.00
2023-11-29T04:23:57.268Z,-1.00
2023-11-29T04:26:29.365Z,-1.00
2023-11-29T04:29:01.430Z,-0.90
2023-11-29T04:31:30.305Z,-0.90
2023-11-29T04:33:58.544Z,-0.90
2023-11-29T04:36:28.517Z,-0.90
2023-11-29T04:38:56.914Z,-0.90
2023-11-29T04:41:25.262Z,-0.90
2023-11-29T04:43:54.474Z,-0.80
2023-11-29T04:46:22.366Z,-0.80
2023-11-29T04:48:50.267Z,-0.80
2023-11-29T04:51:19.598Z,-0.90
2023-11-29T04:53:48.227Z,-0.90
2023-11-29T04:56:16.109Z,-0.90
2023-11-29T04:58:44.074Z,-1.00
2023-11-29T05:01:13.404Z,-1.00
2023-11-29T05:03:41.912Z,-0.90
2023-11-29T05:06:11.825Z,-0.80
2023-11-29T05:08:40.014Z,-0.80
2023-11-29T05:11:08.256Z,-0.80
2023-11-29T05:13:36.405Z,-0.80
2023-11-29T05:16:04.561Z,-0.80
2023-11-29T05:18:33.954Z,-0.80
2023-11-29T05:21:01.895Z,-0.90
2023-11-29T05:23:30.673Z,-0.90
2023-11-29T05:25:58.774Z,-1.00
2023-11-29T05:28:28.181Z,-1.10
2023-11-29T05:30:56.384Z,-1.00
2023-11-29T05:33:24.807Z,-1.00
2023-11-29T05:35:55.254Z,-0.90
2023-11-29T05:38:23.247Z,-0.80
2023-11-29T05:40:51.153Z,-0.80
2023-11-29T05:43:19.001Z,-0.80
2023-11-29T05:45:46.830Z,-0.80
2023-11-29T05:48:14.827Z,-0.80
2023-11-29T05:50:42.923Z,-0.70
2023-11-29T05:53:12.262Z,-0.70
2023-11-29T05:55:40.107Z,-0.70
2023-11-29T05:58:08.019Z,-0.70
2023-11-29T06:00:37.632Z,-0.70
2023-11-29T06:03:05.860Z,-0.70
2023-11-29T06:05:36.029Z,-0.60
2023-11-29T06:08:04.062Z,-0.50
2023-11-29T06:10:33.366Z,-0.50
2023-11-29T06:13:01.265Z,-0.40
2023-11-29T06:15:29.324Z,-0.40
2023-11-29T06:17:57.406Z,-0.40
2023-11-29T06:20:25.336Z,-0.40
2023-11-29T06:22:54.162Z,-0.40
2023-11-29T06:25:22.211Z,-0.40
2023-11-29T06:27:51.429Z,-0.40
2023-11-29T06:30:19.519Z,-0.30
2023-11-29T06:32:50.641Z,-0.20
2023-11-29T06:35:19.253Z,-0.20
2023-11-29T06:37:51.325Z,-0.20
2023-11-29T06:40:24.827Z,-0.20
2023-11-29T06:42:55.073Z,-0.10
2023-11-29T06:45:26.338Z,0.00
2023-11-29T06:47:54.282Z,0.00
2023-11-29T06:50:22.226Z,0.00
2023-11-29T06:52:50.126Z,0.00
2023-11-29T06:55:18.166Z,0.10
2023-11-29T06:57:46.049Z,0.00
2023-11-29T07:00:17.791Z,0.00
2023-11-29T07:02:46.082Z,0.10
2023-11-29T07:05:14.170Z,0.10
2023-11-29T07:07:42.039Z,0.10
2023-11-29T07:10:11.208Z,0.10
2023-11-29T07:12:39.087Z,0.10
2023-11-29T07:15:07.988Z,0.10
2023-11-29T07:17:37.458Z,0.10
2023-11-29T07:20:07.982Z,0.10
2023-11-29T07:22:38.163Z,0.20
2023-11-29T07:25:07.827Z,0.20
2023-11-29T07:27:35.870Z,0.20
2023-11-29T07:30:03.989Z,0.20
2023-11-29T07:32:31.999Z,0.20
2023-11-29T07:35:01.893Z,0.30
2023-11-29T07:37:29.803Z,0.30
2023-11-29T07:39:57.651Z,0.40
2023-11-29T07:42:25.642Z,0.40
2023-11-29T07:44:53.558Z,0.50
2023-11-29T07:47:24.313Z,0.50
2023-11-29T07:49:52.219Z,0.60
2023-11-29T07:52:21.408Z,0.60
2023-11-29T07:54:49.269Z,0.70
2023-11-29T07:57:17.536Z,0.80
2023-11-29T07:59:47.319Z,0.80
2023-11-29T08:02:15.363Z,0.80
2023-11-29T08:04:43.383Z,0.80
2023-11-29T08:07:11.352Z,0.80
2023-11-29T08:09:40.556Z,0.80
2023-11-29T08:12:09.056Z,0.90
2023-11-29T08:14:37.097Z,0.90
2023-11-29T08:17:07.520Z,0.90
2023-11-29T08:19:35.490Z,0.90
2023-11-29T08:22:04.574Z,1.00
2023-11-29T08:24:32.922Z,1.10
2023-11-29T08:27:02.196Z,1.10
2023-11-29T08:29:33.312Z,1.10
2023-11-29T08:32:01.176Z,1.10
2023-11-29T08:34:31.314Z,1.20
2023-11-29T08:36:59.282Z,1.20
2023-11-29T08:39:27.300Z,1.30
2023-11-29T08:41:55.719Z,1.30
2023-11-29T08:44:25.462Z,1.50
2023-11-29T08:46:53.553Z,1.70
2023-11-29T09:00:45.456Z,2.20
2023-11-29T09:03:13.503Z,2.20
2023-11-29T09:13:10.022Z,2.50
2023-11-29T09:20:01.490Z,2.60
2023-11-29T09:22:30.728Z,2.60
2023-11-29T09:24:58.882Z,2.60
2023-11-29T09:27:27.003Z,2.40
2023-11-29T09:29:54.868Z,2.30
2023-11-29T09:32:22.800Z,2.20
2023-11-29T09:34:50.786Z,2.10
2023-11-29T09:37:18.741Z,2.10
2023-11-29T09:39:48.120Z,2.10
2023-11-29T09:42:17.414Z,2.10
2023-11-29T09:44:46.561Z,2.10
2023-11-29T09:47:14.651Z,2.10
2023-11-29T09:49:42.526Z,2.20
2023-11-29T09:52:15.365Z,2.20
2023-11-29T09:54:43.339Z,2.30
2023-11-29T09:57:13.319Z,2.40
2023-11-29T09:59:42.408Z,2.30
2023-11-29T10:02:11.800Z,2.30
2023-11-29T10:04:41.345Z,2.20
2023-11-29T10:07:10.771Z,2.20
2023-11-29T10:09:39.694Z,2.10
2023-11-29T10:12:09.284Z,2.10
2023-11-29T10:14:42.346Z,2.10
2023-11-29T10:17:14.781Z,2.20
2023-11-29T10:19:44.411Z,2.40
2023-11-29T10:22:15.720Z,2.60
2023-11-29T10:24:43.753Z,2.60
2023-11-29T10:27:14.309Z,2.70
2023-11-29T10:29:44.005Z,2.70
2023-11-29T10:32:12.097Z,2.80
2023-11-29T10:34:40.266Z,2.80
2023-11-29T10:37:08.721Z,2.80
2023-11-29T10:39:39.877Z,2.80
2023-11-29T10:42:10.129Z,2.90
2023-11-29T10:44:39.592Z,2.90
2023-11-29T10:47:16.150Z,3.00
2023-11-29T10:49:49.501Z,3.20
2023-11-29T10:52:20.066Z,3.30
2023-11-29T10:54:48.922Z,3.40
2023-11-29T10:57:20.722Z,3.40
2023-11-29T10:59:59.171Z,3.60
2023-11-29T11:02:32.256Z,3.90
2023-11-29T11:05:08.963Z,4.20
2023-11-29T11:07:41.970Z,4.20
2023-11-29T11:10:11.220Z,3.90
2023-11-29T11:12:41.984Z,3.80
2023-11-29T11:15:15.064Z,3.60
2023-11-29T11:17:45.385Z,3.40
2023-11-29T11:20:13.802Z,3.40
2023-11-29T11:22:43.451Z,3.50
2023-11-29T11:25:13.741Z,3.80
2023-11-29T11:27:44.628Z,4.00
2023-11-29T11:30:28.005Z,4.00
2023-11-29T11:33:00.098Z,4.00
2023-11-29T11:35:37.695Z,3.80
2023-11-29T11:38:09.117Z,3.60
2023-11-29T11:40:41.168Z,3.40
2023-11-29T11:43:11.511Z,3.20
2023-11-29T11:45:40.889Z,3.00
2023-11-29T11:48:10.786Z,2.80
2023-11-29T11:50:38.884Z,2.80
2023-11-29T11:53:07.895Z,2.70
2023-11-29T11:55:40.452Z,2.70
2023-11-29T11:58:10.813Z,2.80
2023-11-29T12:00:40.204Z,2.90
2023-11-29T12:03:08.413Z,3.00
2023-11-29T12:05:38.064Z,3.00
2023-11-29T12:08:10.148Z,3.00
2023-11-29T12:10:39.653Z,3.00
2023-11-29T12:13:08.039Z,2.90
2023-11-29T12:15:36.300Z,2.90
2023-11-29T12:18:13.569Z,2.80
2023-11-29T12:20:43.829Z,2.80
2023-11-29T12:23:13.970Z,2.80
2023-11-29T12:25:43.485Z,2.80
2023-11-29T12:28:13.379Z,2.80
2023-11-29T12:30:43.616Z,2.80
2023-11-29T12:33:11.812Z,2.80
2023-11-29T12:35:39.953Z,2.80
2023-11-29T12:38:09.930Z,2.80
2023-11-29T12:40:43.186Z,2.80
2023-11-29T12:43:11.171Z,2.90
2023-11-29T12:45:39.073Z,2.90
2023-11-29T12:48:07.452Z,3.00
2023-11-29T12:50:36.201Z,3.10
2023-11-29T12:53:04.506Z,3.20
2023-11-29T12:55:33.738Z,3.40
2023-11-29T12:58:01.602Z,3.60
2023-11-29T13:00:29.545Z,3.80
2023-11-29T13:02:57.422Z,4.00
2023-11-29T13:05:25.713Z,4.10
2023-11-29T13:07:53.686Z,4.10
2023-11-29T13:10:21.595Z,4.10
2023-11-29T13:12:50.993Z,4.00
2023-11-29T13:15:19.939Z,4.00
2023-11-29T13:17:48.128Z,3.90
2023-11-29T13:20:16.209Z,3.80
2023-11-29T13:22:44.168Z,3.80
2023-11-29T13:25:15.014Z,3.80
2023-11-29T13:27:42.945Z,3.80
2023-11-29T13:30:16.530Z,3.80
2023-11-29T13:32:44.439Z,3.80
2023-11-29T13:35:12.757Z,3.80
2023-11-29T13:37:40.750Z,3.70
2023-11-29T13:40:10.307Z,3.50
2023-11-29T13:42:38.150Z,3.50
2023-11-29T13:45:06.974Z,3.40
2023-11-29T13:47:36.679Z,3.40
2023-11-29T13:50:05.011Z,3.30
2023-11-29T13:52:33.085Z,3.30
2023-11-29T13:55:01.742Z,3.30
2023-11-29T13:57:29.822Z,3.30
2023-11-29T13:59:57.741Z,3.20
2023-11-29T14:02:25.808Z,3.20
2023-11-29T14:04:55.427Z,3.20
2023-11-29T14:07:23.385Z,3.20
2023-11-29T14:09:51.242Z,3.20
2023-11-29T14:12:20.193Z,3.20
2023-11-29T14:14:48.226Z,3.20
2023-11-29T14:17:16.325Z,3.30
2023-11-29T14:19:44.387Z,3.30
2023-11-29T14:22:13.680Z,3.30
2023-11-29T14:24:43.018Z,3.20
2023-11-29T14:27:11.001Z,3.20
2023-11-29T14:29:39.077Z,3.10
2023-11-29T14:32:08.042Z,3.10
2023-11-29T14:34:38.322Z,3.10
2023-11-29T14:37:06.533Z,3.10
2023-11-29T14:39:37.150Z,3.10
2023-11-29T14:42:06.337Z,3.10
2023-11-29T14:44:34.354Z,3.10
2023-11-29T14:47:04.389Z,3.00
2023-11-29T14:49:33.958Z,3.00
2023-11-29T14:52:02.182Z,3.00
2023-11-29T14:54:30.038Z,3.00
2023-11-29T14:56:59.356Z,3.00
2023-11-29T14:59:27.262Z,3.10
2023-11-29T15:01:55.122Z,3.20
2023-11-29T15:04:23.013Z,3.20
2023-11-29T15:06:51.003Z,3.30
2023-11-29T15:09:19.183Z,3.30
2023-11-29T15:11:48.770Z,3.30
2023-11-29T15:14:18.039Z,3.30
2023-11-29T15:16:46.020Z,3.20
2023-11-29T15:19:14.225Z,3.20
2023-11-29T15:21:42.148Z,3.20
2023-11-29T15:24:10.306Z,3.20
2023-11-29T15:26:39.347Z,3.20
2023-11-29T15:29:07.494Z,3.10
2023-11-29T15:31:36.815Z,3.10
2023-11-29T15:34:04.792Z,3.00
2023-11-29T15:36:32.881Z,3.00
2023-11-29T15:39:01.903Z,3.00
2023-11-29T15:41:29.922Z,2.90
2023-11-29T15:43:58.011Z,2.90
2023-11-29T15:46:26.094Z,2.90
2023-11-29T15:48:55.584Z,2.90
2023-11-29T15:51:23.548Z,2.90
2023-11-29T15:53:51.627Z,2.90
2023-11-29T15:56:19.450Z,2.90
2023-11-29T15:58:47.324Z,2.80
2023-11-29T16:01:15.213Z,2.90
2023-11-29T16:03:43.391Z,2.80
2023-11-29T16:06:13.027Z,2.80
2023-11-29T16:08:42.062Z,2.70
2023-11-29T16:11:10.096Z,2.70
2023-11-29T16:13:38.301Z,2.70
2023-11-29T16:16:07.583Z,2.70
2023-11-29T16:18:36.000Z,2.60
2023-11-29T16:21:03.967Z,2.50
2023-11-29T16:23:33.224Z,2.40
2023-11-29T16:26:01.908Z,2.40
2023-11-29T16:28:29.781Z,2.40
2023-11-29T16:30:57.907Z,2.50
2023-11-29T16:33:26.180Z,2.40
2023-11-29T16:35:54.338Z,2.40
2023-11-29T16:38:22.265Z,2.40
2023-11-29T16:40:51.516Z,2.40
2023-11-29T16:43:19.473Z,2.40
2023-11-29T16:45:47.408Z,2.40
2023-11-29T16:48:21.104Z,2.40
2023-11-29T16:50:51.591Z,2.40
2023-11-29T16:53:25.759Z,2.40
2023-11-29T16:56:01.966Z,2.30
2023-11-29T16:58:30.032Z,2.30
2023-11-29T17:00:58.797Z,2.20
2023-11-29T17:03:26.789Z,2.20
2023-11-29T17:05:55.054Z,2.30
2023-11-29T17:08:23.169Z,2.20
2023-11-29T17:10:51.825Z,2.20
2023-11-29T17:13:27.025Z,2.10
2023-11-29T17:15:55.034Z,2.10
2023-11-29T17:18:26.407Z,2.00
2023-11-29T17:20:56.242Z,2.00
2023-11-29T17:23:24.112Z,2.00
2023-11-29T17:25:52.039Z,2.00
2023-11-29T17:28:21.288Z,2.00
2023-11-29T17:30:50.010Z,2.00
2023-11-29T17:33:18.025Z,2.10
2023-11-29T17:35:48.962Z,2.00
2023-11-29T17:38:17.634Z,2.00
2023-11-29T17:40:45.578Z,2.00
2023-11-29T17:43:13.484Z,2.00
2023-11-29T17:45:43.662Z,2.00
2023-11-29T17:48:13.975Z,2.00
2023-11-29T17:50:42.646Z,2.00
2023-11-29T17:53:10.752Z,1.90
2023-11-29T17:55:39.086Z,1.90
2023-11-29T17:58:06.977Z,1.80
2023-11-29T18:00:34.847Z,1.80
2023-11-29T18:03:04.207Z,1.80
2023-11-29T18:05:32.147Z,1.90
2023-11-29T18:08:02.372Z,1.80
2023-11-29T18:10:50.957Z,1.80
2023-11-29T18:13:21.611Z,1.80
2023-11-29T18:15:49.876Z,1.80
2023-11-29T18:18:19.360Z,1.80
2023-11-29T18:20:49.155Z,1.70
2023-11-29T18:23:18.384Z,1.70
2023-11-29T18:25:52.661Z,1.80
2023-11-29T18:28:27.704Z,1.70
2023-11-29T18:30:55.598Z,1.70
2023-11-29T18:33:25.184Z,1.60
2023-11-29T18:35:56.162Z,1.60
2023-11-29T18:38:24.659Z,1.50
2023-11-29T18:40:52.717Z,1.60
2023-11-29T18:43:20.713Z,1.60
2023-11-29T18:45:48.818Z,1.60
2023-11-29T18:48:16.838Z,1.50
2023-11-29T18:50:46.182Z,1.50
2023-11-29T18:53:14.636Z,1.40
2023-11-29T18:55:42.780Z,1.40
2023-11-29T18:58:10.813Z,1.40
2023-11-29T19:00:38.710Z,1.50
2023-11-29T19:03:07.544Z,1.50
2023-11-29T19:05:35.553Z,1.50
2023-11-29T19:08:05.020Z,1.50
2023-11-29T19:10:34.159Z,1.50
2023-11-29T19:13:04.219Z,1.50
2023-11-29T19:15:34.889Z,1.40
2023-11-29T19:18:04.016Z,1.30
2023-11-29T19:20:36.980Z,1.30
2023-11-29T19:23:17.987Z,1.30
2023-11-29T19:26:03.636Z,1.30
2023-11-29T19:28:31.681Z,1.30
2023-11-29T19:31:00.559Z,1.20
2023-11-29T19:33:28.839Z,1.30
2023-11-29T19:35:57.668Z,1.30
2023-11-29T19:38:26.965Z,1.30
2023-11-29T19:40:55.820Z,1.30
2023-11-29T19:43:26.733Z,1.30
2023-11-29T19:45:54.685Z,1.40
2023-11-29T19:49:10.659Z,1.40
2023-11-29T19:51:40.124Z,1.40
2023-11-29T19:54:10.897Z,1.50
2023-11-29T19:56:38.833Z,1.50
2023-11-29T19:59:06.877Z,1.50
2023-11-29T20:01:36.368Z,1.40
2023-11-29T20:04:04.624Z,1.40
2023-11-29T20:06:39.496Z,1.40
2023-11-29T20:09:09.589Z,1.40
2023-11-29T20:11:37.659Z,1.40
2023-11-29T20:14:13.179Z,1.40
2023-11-29T20:16:46.904Z,1.50
2023-11-29T20:19:14.904Z,1.50
2023-11-29T20:21:43.098Z,1.50
2023-11-29T20:24:12.737Z,1.60
2023-11-29T20:26:40.712Z,1.60
2023-11-29T20:29:08.594Z,1.60
2023-11-29T20:31:37.474Z,1.60
2023-11-29T20:34:14.534Z,1.60
2023-11-29T20:36:48.776Z,1.60
2023-11-29T20:39:18.642Z,1.60
2023-11-29T20:41:50.256Z,1.60
2023-11-29T20:44:18.963Z,1.60
2023-11-29T20:46:47.286Z,1.70
2023-11-29T20:49:15.269Z,1.60
2023-11-29T20:51:43.585Z,1.60
2023-11-29T20:54:11.711Z,1.60
2023-11-29T20:56:41.246Z,1.70
2023-11-29T20:59:13.446Z,1.60
2023-11-29T21:01:41.708Z,1.60
2023-11-29T21:04:11.902Z,1.70
2023-11-29T21:06:41.239Z,1.70
2023-11-29T21:09:09.575Z,1.70
2023-11-29T21:11:37.511Z,1.70
2023-11-29T21:14:06.759Z,1.70
2023-11-29T21:16:34.700Z,1.80
2023-11-29T21:19:02.832Z,1.70
2023-11-29T21:21:31.677Z,1.70
2023-11-29T21:24:05.934Z,1.70
2023-11-29T21:26:33.908Z,1.60
2023-11-29T21:29:01.991Z,1.60
2023-11-29T21:31:33.231Z,1.60
2023-11-29T21:34:01.448Z,1.50
2023-11-29T21:36:29.372Z,1.50
2023-11-29T21:38:57.460Z,1.40
2023-11-29T21:41:25.437Z,1.40
2023-11-29T21:43:53.534Z,1.40
2023-11-29T21:46:21.458Z,1.40
2023-11-29T21:48:50.826Z,1.40
2023-11-29T21:51:18.851Z,1.40
2023-11-29T21:53:46.857Z,1.40
2023-11-29T21:56:14.799Z,1.40
2023-11-29T21:58:42.675Z,1.40
2023-11-29T22:01:14.915Z,1.50
2023-11-29T22:03:42.959Z,1.50
2023-11-29T22:06:14.148Z,1.50
2023-11-29T22:08:43.886Z,1.60
2023-11-29T22:11:11.955Z,1.60
2023-11-29T22:13:40.306Z,1.60
2023-11-29T22:16:09.042Z,1.60
2023-11-29T22:18:37.041Z,1.60
2023-11-29T22:21:05.510Z,1.60
2023-11-29T22:23:34.695Z,1.60
2023-11-29T22:26:02.565Z,1.60
2023-11-29T22:28:30.683Z,1.60
2023-11-29T22:30:58.550Z,1.60
2023-11-29T22:33:26.631Z,1.60
2023-11-29T22:35:55.977Z,1.70
2023-11-29T22:38:26.411Z,1.70
2023-11-29T22:40:55.868Z,1.60
2023-11-29T22:43:23.800Z,1.70
2023-11-29T22:45:51.721Z,1.70
2023-11-29T22:48:19.704Z,1.60
2023-11-29T22:50:47.652Z,1.60
2023-11-29T22:53:15.557Z,1.60
2023-11-29T22:55:45.606Z,1.50
2023-11-29T22:58:14.870Z,1.50
2023-11-29T23:00:42.815Z,1.50
2023-11-29T23:03:10.847Z,1.50
2023-11-29T23:05:39.025Z,1.50
2023-11-29T23:08:07.020Z,1.50
2023-11-29T23:10:34.967Z,1.60
2023-11-29T23:13:02.908Z,1.60
2023-11-29T23:15:32.278Z,1.70
2023-11-29T23:18:00.311Z,1.70
2023-11-29T23:20:28.218Z,1.70
2023-11-29T23:22:56.078Z,1.70
2023-11-29T23:25:23.935Z,1.70
2023-11-29T23:27:51.823Z,1.70
2023-11-29T23:30:20.746Z,1.70
2023-11-29T23:32:51.482Z,1.70
2023-11-29T23:35:19.345Z,1.70
2023-11-29T23:37:47.355Z,1.70
2023-11-29T23:40:15.401Z,1.80
2023-11-29T23:42:43.230Z,1.80
2023-11-29T23:45:11.305Z,1.80
2023-11-29T23:47:39.206Z,1.90
2023-11-29T23:50:09.080Z,1.90
2023-11-29T23:52:36.915Z,1.90
2023-11-29T23:55:05.011Z,1.90
2023-11-29T23:57:32.837Z,1.90
